createdAt,value
2022-11-19T00:02:24.616Z,11.63
2022-11-19T00:04:52.457Z,10.67
2022-11-19T00:07:20.271Z,15.93
2022-11-19T00:09:49.420Z,13.67
2022-11-19T00:12:34.596Z,16.13
2022-11-19T00:15:02.298Z,11.73
2022-11-19T00:17:30.084Z,12.30
2022-11-19T00:19:57.855Z,11.40
2022-11-19T00:22:25.725Z,13.17
2022-11-19T00:24:55.127Z,11.57
2022-11-19T00:27:22.860Z,14.37
2022-11-19T00:29:50.836Z,15.10
2022-11-19T00:32:18.692Z,11.37
2022-11-19T00:34:46.581Z,14.23
2022-11-19T00:37:14.520Z,13.57
2022-11-19T00:39:43.601Z,15.63
2022-11-19T00:42:13.914Z,14.97
2022-11-19T00:44:44.017Z,15.43
2022-11-19T00:47:11.881Z,14.47
2022-11-19T00:49:39.629Z,11.37
2022-11-19T00:52:07.367Z,13.07
2022-11-19T00:54:35.393Z,13.47
2022-11-19T00:57:03.156Z,10.83
2022-11-19T00:59:32.528Z,13.43
2022-11-19T01:02:00.217Z,16.57
2022-11-19T01:04:27.909Z,11.77
2022-11-19T01:06:55.981Z,13.00
2022-11-19T01:09:24.733Z,12.87
2022-11-19T01:11:52.458Z,14.03
2022-11-19T01:14:20.297Z,12.77
2022-11-19T01:16:49.869Z,11.60
2022-11-19T01:19:18.070Z,13.37
2022-11-19T01:21:46.203Z,15.60
2022-11-19T01:24:14.257Z,10.70
2022-11-19T01:26:45.784Z,14.43
2022-11-19T01:29:14.212Z,16.90
2022-11-19T01:31:42.021Z,13.30
2022-11-19T01:34:11.085Z,14.87
2022-11-19T01:36:38.917Z,12.87
2022-11-19T01:39:06.653Z,13.60
2022-11-19T01:41:34.791Z,12.77
2022-11-19T01:44:04.682Z,12.20
2022-11-19T01:46:35.027Z,14.80
2022-11-19T01:49:05.793Z,12.27
2022-11-19T01:51:39.023Z,12.33
2022-11-19T01:54:13.227Z,14.07
2022-11-19T01:56:41.015Z,13.17
2022-11-19T01:59:12.364Z,12.20
2022-11-19T02:01:40.144Z,15.80
2022-11-19T02:04:12.189Z,13.13
2022-11-19T02:06:42.794Z,12.33
2022-11-19T02:09:10.518Z,15.03
2022-11-19T02:11:58.228Z,14.63
2022-11-19T02:14:41.360Z,15.30
2022-11-19T02:17:18.243Z,12.33
2022-11-19T02:20:29.128Z,11.73
2022-11-19T02:23:29.019Z,13.47
2022-11-19T02:26:17.472Z,11.50
2022-11-19T02:28:48.714Z,13.40
2022-11-19T02:31:25.275Z,14.90
2022-11-19T02:33:58.681Z,12.40
2022-11-19T02:36:29.439Z,14.77
2022-11-19T02:39:03.520Z,12.63
2022-11-19T02:41:36.774Z,13.67
2022-11-19T02:44:31.683Z,15.10
2022-11-19T02:47:04.323Z,13.20
2022-11-19T02:49:35.333Z,15.07
2022-11-19T02:52:05.200Z,15.87
2022-11-19T02:54:32.908Z,12.27
2022-11-19T02:57:00.653Z,12.80
2022-11-19T02:59:51.562Z,15.70
2022-11-19T03:02:40.840Z,15.97
2022-11-19T03:05:15.379Z,14.07
2022-11-19T03:07:43.492Z,14.40
2022-11-19T03:10:12.287Z,13.17
2022-11-19T03:12:50.246Z,16.63
2022-11-19T03:15:46.515Z,13.57
2022-11-19T03:18:20.042Z,12.33
2022-11-19T03:20:53.741Z,15.37
2022-11-19T03:23:25.818Z,12.67
2022-11-19T03:25:57.812Z,13.07
2022-11-19T03:28:30.046Z,13.73
2022-11-19T03:31:00.509Z,13.27
2022-11-19T03:33:34.445Z,12.73
2022-11-19T03:36:06.438Z,13.97
2022-11-19T03:38:40.472Z,11.40
2022-11-19T03:41:11.510Z,10.73
2022-11-19T03:43:43.809Z,12.13
2022-11-19T03:46:16.586Z,11.03
2022-11-19T03:48:47.862Z,13.37
2022-11-19T03:51:20.222Z,13.00
2022-11-19T03:53:49.463Z,12.90
2022-11-19T03:56:21.623Z,13.20
2022-11-19T03:58:49.508Z,11.70
2022-11-19T04:01:17.379Z,11.23
2022-11-19T04:04:06.425Z,10.43
2022-11-19T04:06:34.209Z,15.03
2022-11-19T04:09:01.961Z,12.97
2022-11-19T04:11:29.641Z,14.10
2022-11-19T04:13:57.376Z,14.50
2022-11-19T04:16:25.070Z,13.87
2022-11-19T04:18:54.075Z,12.93
2022-11-19T04:21:23.877Z,14.20
2022-11-19T04:23:51.627Z,12.57
2022-11-19T04:26:19.369Z,13.63
2022-11-19T04:28:47.028Z,11.97
2022-11-19T04:31:17.829Z,10.00
2022-11-19T04:33:46.135Z,15.07
2022-11-19T04:36:15.376Z,12.73
2022-11-19T04:38:43.223Z,12.40
2022-11-19T04:41:11.168Z,10.57
2022-11-19T04:43:39.205Z,11.47
2022-11-19T04:46:07.424Z,13.00
2022-11-19T04:48:35.186Z,10.30
2022-11-19T04:51:02.983Z,10.53
2022-11-19T04:53:32.009Z,13.73
2022-11-19T04:55:59.796Z,11.00
2022-11-19T04:58:27.485Z,13.27
2022-11-19T05:00:55.402Z,13.00
2022-11-19T05:03:23.526Z,12.07
2022-11-19T05:05:51.475Z,12.53
2022-11-19T05:08:19.268Z,12.40
2022-11-19T05:10:48.653Z,13.17
2022-11-19T05:13:16.398Z,13.97
2022-11-19T05:15:44.214Z,12.07
2022-11-19T05:18:12.644Z,10.83
2022-11-19T05:20:40.378Z,12.50
2022-11-19T05:23:08.177Z,13.57
2022-11-19T05:25:35.907Z,12.60
2022-11-19T05:28:05.185Z,11.13
2022-11-19T05:30:32.911Z,14.73
2022-11-19T05:33:00.776Z,11.53
2022-11-19T05:35:28.650Z,11.47
2022-11-19T05:37:56.703Z,11.90
2022-11-19T05:40:24.755Z,12.13
2022-11-19T05:42:52.453Z,12.07
2022-11-19T05:45:21.636Z,12.60
2022-11-19T05:47:55.227Z,12.70
2022-11-19T05:50:23.071Z,12.37
2022-11-19T05:52:51.171Z,11.23
2022-11-19T05:55:19.000Z,11.10
2022-11-19T05:57:46.719Z,13.60
2022-11-19T06:00:16.194Z,11.90
2022-11-19T06:02:45.346Z,8.77
2022-11-19T06:05:13.341Z,13.13
2022-11-19T06:07:41.151Z,16.00
2022-11-19T06:10:10.029Z,12.93
2022-11-19T06:12:41.262Z,10.73
2022-11-19T06:15:13.162Z,10.83
2022-11-19T06:17:40.888Z,12.17
2022-11-19T06:20:11.223Z,15.87
2022-11-19T06:22:39.823Z,13.57
2022-11-19T06:25:08.597Z,13.20
2022-11-19T06:27:36.349Z,10.27
2022-11-19T06:30:04.862Z,14.13
2022-11-19T06:32:32.564Z,13.30
2022-11-19T06:35:00.269Z,11.57
2022-11-19T06:37:29.344Z,11.20
2022-11-19T06:39:57.065Z,16.10
2022-11-19T06:42:39.929Z,10.47
2022-11-19T06:45:09.922Z,15.30
2022-11-19T06:47:38.696Z,11.53
2022-11-19T06:50:07.851Z,12.47
2022-11-19T06:52:37.599Z,11.87
2022-11-19T06:55:06.300Z,10.10
2022-11-19T06:57:34.529Z,10.43
2022-11-19T07:00:02.270Z,11.23
2022-11-19T07:02:30.031Z,12.13
2022-11-19T07:04:57.709Z,14.17
2022-11-19T07:07:25.624Z,12.07
2022-11-19T07:09:54.750Z,12.27
2022-11-19T07:12:22.488Z,17.00
2022-11-19T07:14:52.344Z,12.33
2022-11-19T07:17:20.083Z,13.43
2022-11-19T07:19:47.722Z,10.93
2022-11-19T07:22:15.497Z,9.20
2022-11-19T07:24:43.179Z,12.17
2022-11-19T07:27:12.205Z,9.93
2022-11-19T07:29:40.052Z,14.07
2022-11-19T07:32:07.731Z,14.43
2022-11-19T07:34:35.423Z,10.60
2022-11-19T07:37:03.084Z,9.93
2022-11-19T07:39:30.774Z,12.90
2022-11-19T07:42:16.121Z,12.03
2022-11-19T07:44:45.179Z,9.90
2022-11-19T07:47:12.859Z,14.03
2022-11-19T07:49:40.560Z,9.73
2022-11-19T07:52:08.245Z,11.57
2022-11-19T07:54:35.947Z,12.03
2022-11-19T07:57:03.605Z,11.17
2022-11-19T07:59:31.330Z,11.97
2022-11-19T08:02:00.381Z,13.23
2022-11-19T08:04:28.609Z,9.60
2022-11-19T08:06:56.558Z,10.77
2022-11-19T08:09:24.349Z,13.73
2022-11-19T08:11:52.116Z,11.43
2022-11-19T08:14:19.867Z,11.47
2022-11-19T08:17:05.344Z,10.27
2022-11-19T08:19:37.021Z,10.50
2022-11-19T08:22:04.723Z,10.50
2022-11-19T08:24:32.651Z,11.07
2022-11-19T08:27:00.337Z,12.07
2022-11-19T08:29:28.242Z,12.20
2022-11-19T08:31:55.927Z,13.60
2022-11-19T08:34:23.717Z,10.90
2022-11-19T08:36:52.701Z,9.27
2022-11-19T08:39:20.526Z,10.17
2022-11-19T08:42:06.104Z,11.53
2022-11-19T08:44:34.077Z,10.83
2022-11-19T08:47:01.852Z,13.37
2022-11-19T08:49:29.777Z,11.60
2022-11-19T08:51:59.113Z,14.10
2022-11-19T08:54:26.916Z,12.37
2022-11-19T08:56:55.507Z,11.70
2022-11-19T08:59:23.568Z,11.33
2022-11-19T09:01:51.835Z,14.37
2022-11-19T09:04:19.877Z,12.87
2022-11-19T09:06:47.966Z,11.53
2022-11-19T09:09:17.764Z,10.93
2022-11-19T09:11:45.492Z,14.80
2022-11-19T09:14:13.228Z,12.90
2022-11-19T09:16:41.015Z,14.73
2022-11-19T09:19:08.780Z,14.00
2022-11-19T09:21:36.616Z,13.53
2022-11-19T09:24:04.975Z,10.30
2022-11-19T09:26:34.097Z,12.80
2022-11-19T09:29:04.574Z,11.80
2022-11-19T09:31:32.446Z,13.80
2022-11-19T09:34:00.452Z,13.87
2022-11-19T09:36:28.457Z,10.13
2022-11-19T09:38:58.178Z,13.90
2022-11-19T09:41:48.556Z,13.23
2022-11-19T09:44:35.227Z,13.87
2022-11-19T09:47:17.029Z,11.03
2022-11-19T09:49:48.160Z,11.50
2022-11-19T09:52:19.246Z,15.40
2022-11-19T09:54:51.411Z,14.47
2022-11-19T09:57:29.113Z,13.07
2022-11-19T10:00:01.228Z,15.13
2022-11-19T10:02:30.216Z,13.23
2022-11-19T10:04:59.531Z,16.27
2022-11-19T10:07:34.899Z,13.83
2022-11-19T10:10:19.313Z,11.07
2022-11-19T10:13:11.550Z,13.80
2022-11-19T10:15:49.437Z,12.83
2022-11-19T10:18:27.051Z,16.03
2022-11-19T10:21:01.437Z,12.10
2022-11-19T10:23:48.125Z,13.10
2022-11-19T10:26:17.567Z,11.87
2022-11-19T10:28:54.299Z,17.50
2022-11-19T10:31:30.045Z,17.93
2022-11-19T10:34:05.517Z,12.23
2022-11-19T10:36:39.819Z,18.77
2022-11-19T10:39:16.067Z,14.27
2022-11-19T10:41:50.325Z,13.57
2022-11-19T10:44:43.643Z,11.77
2022-11-19T10:47:17.407Z,11.70
2022-11-19T10:49:45.695Z,11.23
2022-11-19T10:52:24.921Z,19.37
2022-11-19T10:54:57.607Z,19.87
2022-11-19T10:57:26.431Z,17.03
2022-11-19T10:59:55.780Z,10.27
2022-11-19T11:02:30.489Z,10.57
2022-11-19T11:05:09.942Z,12.90
2022-11-19T11:08:02.069Z,12.77
2022-11-19T11:10:44.050Z,16.70
2022-11-19T11:13:58.029Z,11.43
2022-11-19T11:16:40.889Z,15.93
2022-11-19T11:19:14.531Z,9.87
2022-11-19T11:21:44.331Z,9.63
2022-11-19T11:24:13.391Z,14.53
2022-11-19T11:26:41.625Z,9.03
2022-11-19T11:29:26.218Z,10.30
2022-11-19T11:31:56.247Z,8.33
2022-11-19T11:34:33.073Z,10.07
2022-11-19T11:37:03.827Z,11.97
2022-11-19T11:39:33.106Z,11.47
2022-11-19T11:42:05.844Z,10.77
2022-11-19T11:44:38.183Z,10.67
2022-11-19T11:47:14.109Z,9.57
2022-11-19T11:49:44.629Z,6.23
2022-11-19T11:52:20.799Z,7.20
2022-11-19T11:54:57.930Z,16.40
2022-11-19T11:57:28.189Z,13.93
2022-11-19T11:59:56.163Z,10.13
2022-11-19T12:02:29.960Z,10.80
2022-11-19T12:05:01.064Z,11.63
2022-11-19T12:07:56.077Z,8.43
2022-11-19T12:10:29.820Z,9.13
2022-11-19T12:13:12.999Z,6.47
2022-11-19T12:15:51.453Z,8.60
2022-11-19T12:18:30.109Z,6.73
2022-11-19T12:21:11.300Z,10.30
2022-11-19T12:23:59.425Z,10.67
2022-11-19T12:26:34.989Z,7.33
2022-11-19T12:29:14.179Z,9.90
2022-11-19T12:32:00.618Z,9.40
2022-11-19T12:34:59.524Z,9.17
2022-11-19T12:37:40.535Z,7.40
2022-11-19T12:40:26.425Z,8.30
2022-11-19T12:43:04.781Z,6.80
2022-11-19T12:45:43.116Z,8.10
2022-11-19T12:48:32.932Z,10.37
2022-11-19T12:51:09.307Z,9.00
2022-11-19T12:53:49.240Z,9.03
2022-11-19T12:56:33.294Z,6.20
2022-11-19T12:59:11.741Z,9.53
2022-11-19T13:01:44.584Z,13.90
2022-11-19T13:04:16.523Z,14.83
2022-11-19T13:06:50.557Z,17.63
2022-11-19T13:09:25.320Z,9.07
2022-11-19T13:11:57.728Z,11.23
2022-11-19T13:14:34.532Z,6.90
2022-11-19T13:17:05.380Z,8.93
2022-11-19T13:19:37.433Z,10.87
2022-11-19T13:22:13.675Z,11.03
2022-11-19T13:24:44.808Z,11.80
2022-11-19T13:27:20.198Z,7.90
2022-11-19T13:29:55.744Z,10.83
2022-11-19T13:32:28.273Z,10.10
2022-11-19T13:35:05.055Z,10.03
2022-11-19T13:37:44.506Z,13.13
2022-11-19T13:40:21.908Z,15.00
2022-11-19T13:43:31.101Z,12.77
2022-11-19T13:46:06.428Z,14.37
2022-11-19T13:48:37.266Z,10.03
2022-11-19T13:51:09.682Z,12.67
2022-11-19T13:53:43.660Z,12.73
2022-11-19T13:56:16.004Z,14.20
2022-11-19T13:58:47.824Z,10.63
2022-11-19T14:01:31.012Z,10.60
2022-11-19T14:04:22.983Z,13.07
2022-11-19T14:07:13.830Z,11.13
2022-11-19T14:09:51.521Z,12.40
2022-11-19T14:12:35.868Z,14.30
2022-11-19T14:15:41.999Z,13.53
2022-11-19T14:18:39.773Z,14.43
2022-11-19T14:22:05.281Z,11.07
2022-11-19T14:25:16.958Z,13.03
2022-11-19T14:27:45.530Z,14.27
2022-11-19T14:30:16.715Z,12.73
2022-11-19T14:32:50.342Z,15.07
2022-11-19T14:35:42.135Z,13.10
2022-11-19T14:38:31.714Z,11.97
2022-11-19T14:41:08.206Z,11.97
2022-11-19T14:44:09.574Z,15.17
2022-11-19T14:46:42.763Z,17.77
2022-11-19T14:49:35.407Z,12.40
2022-11-19T14:52:04.049Z,18.43
2022-11-19T14:54:37.444Z,22.57
2022-11-19T14:57:27.621Z,24.27
2022-11-19T14:59:59.265Z,21.50
2022-11-19T15:02:39.458Z,25.70
2022-11-19T15:05:17.882Z,22.73
2022-11-19T15:07:51.373Z,16.77
2022-11-19T15:10:48.204Z,31.10
2022-11-19T15:13:35.537Z,26.53
2022-11-19T15:16:09.179Z,23.60
2022-11-19T15:19:10.816Z,39.50
2022-11-19T15:22:12.389Z,42.83
2022-11-19T15:24:57.984Z,26.83
2022-11-19T15:27:42.851Z,20.07
2022-11-19T15:30:19.254Z,28.23
2022-11-19T15:33:04.192Z,22.97
2022-11-19T15:36:02.598Z,21.50
2022-11-19T15:38:36.746Z,17.30
2022-11-19T15:41:06.115Z,17.40
2022-11-19T15:43:40.993Z,22.43
2022-11-19T15:46:14.350Z,21.13
2022-11-19T15:48:54.251Z,25.97
2022-11-19T15:51:23.100Z,16.30
2022-11-19T15:54:01.321Z,17.37
2022-11-19T15:56:32.813Z,17.43
2022-11-19T15:59:02.254Z,15.67
2022-11-19T16:01:34.220Z,18.80
2022-11-19T16:04:07.500Z,25.60
2022-11-19T16:06:37.014Z,23.43
2022-11-19T16:09:05.589Z,21.17
2022-11-19T16:11:53.905Z,30.37
2022-11-19T16:14:45.353Z,28.03
2022-11-19T16:17:41.838Z,25.97
2022-11-19T16:20:21.991Z,20.77
2022-11-19T16:22:59.328Z,28.77
2022-11-19T16:25:33.522Z,25.87
2022-11-19T16:28:05.940Z,28.33
2022-11-19T16:30:49.571Z,21.57
2022-11-19T16:33:22.360Z,22.67
2022-11-19T16:35:53.158Z,16.30
2022-11-19T16:38:28.422Z,21.20
2022-11-19T16:41:15.205Z,15.90
2022-11-19T16:43:45.242Z,17.10
2022-11-19T16:46:16.056Z,19.40
2022-11-19T16:49:03.716Z,20.93
2022-11-19T16:51:37.178Z,20.37
2022-11-19T16:54:06.876Z,21.73
2022-11-19T16:56:38.907Z,22.27
2022-11-19T16:59:07.655Z,23.13
2022-11-19T17:01:36.002Z,21.30
2022-11-19T17:04:07.969Z,21.33
2022-11-19T17:06:38.277Z,18.20
2022-11-19T17:09:07.149Z,19.57
2022-11-19T17:12:06.958Z,17.67
2022-11-19T17:14:54.079Z,28.43
2022-11-19T17:17:28.955Z,33.67
2022-11-19T17:19:58.491Z,20.93
2022-11-19T17:22:29.619Z,17.67
2022-11-19T17:24:57.853Z,17.67
2022-11-19T17:27:29.131Z,21.30
2022-11-19T17:30:02.441Z,20.37
2022-11-19T17:32:35.682Z,31.10
2022-11-19T17:35:09.196Z,28.10
2022-11-19T17:37:36.924Z,38.03
2022-11-19T17:40:05.234Z,31.27
2022-11-19T17:42:50.654Z,24.87
2022-11-19T17:45:18.713Z,22.53
2022-11-19T17:47:46.597Z,30.00
2022-11-19T17:50:16.072Z,28.97
2022-11-19T17:52:43.847Z,25.73
2022-11-19T17:55:18.136Z,22.63
2022-11-19T17:57:46.086Z,25.27
2022-11-19T18:00:15.224Z,29.93
2022-11-19T18:02:42.968Z,18.97
2022-11-19T18:05:19.121Z,22.40
2022-11-19T18:07:47.246Z,23.70
2022-11-19T18:10:15.563Z,21.53
2022-11-19T18:12:43.437Z,18.03
2022-11-19T18:15:14.311Z,23.93
2022-11-19T18:17:42.091Z,23.90
2022-11-19T18:20:10.868Z,24.93
2022-11-19T18:22:40.413Z,25.03
2022-11-19T18:25:14.593Z,27.40
2022-11-19T18:27:42.470Z,31.40
2022-11-19T18:30:11.235Z,31.73
2022-11-19T18:32:39.152Z,36.50
2022-11-19T18:35:14.748Z,25.63
2022-11-19T18:37:44.232Z,26.33
2022-11-19T18:40:13.956Z,24.00
2022-11-19T18:43:02.791Z,30.27
2022-11-19T18:45:29.894Z,25.33
2022-11-19T18:47:58.078Z,24.23
2022-11-19T18:50:29.907Z,21.40
2022-11-19T18:52:59.809Z,24.43
2022-11-19T18:55:27.776Z,21.20
2022-11-19T18:57:55.588Z,23.80
2022-11-19T19:00:23.925Z,26.27
2022-11-19T19:02:51.771Z,25.80
2022-11-19T19:05:19.761Z,29.10
2022-11-19T19:07:48.126Z,33.07
2022-11-19T19:10:17.349Z,30.63
2022-11-19T19:12:45.088Z,31.97
2022-11-19T19:15:12.992Z,30.70
2022-11-19T19:17:40.881Z,29.27
2022-11-19T19:20:10.202Z,29.37
2022-11-19T19:22:37.889Z,28.43
2022-11-19T19:25:06.462Z,26.13
2022-11-19T19:27:36.075Z,28.40
2022-11-19T19:30:05.344Z,34.00
2022-11-19T19:32:33.015Z,28.23
2022-11-19T19:35:00.809Z,25.53
2022-11-19T19:37:28.616Z,31.87
2022-11-19T19:39:56.409Z,33.37
2022-11-19T19:42:24.123Z,28.77
2022-11-19T19:44:53.388Z,33.30
2022-11-19T19:47:21.091Z,29.30
2022-11-19T19:49:48.820Z,29.50
2022-11-19T19:52:16.531Z,24.70
2022-11-19T19:54:44.705Z,27.23
2022-11-19T19:57:12.537Z,28.93
2022-11-19T19:59:40.279Z,27.07
2022-11-19T20:02:10.235Z,22.87
2022-11-19T20:04:38.815Z,21.17
2022-11-19T20:07:08.786Z,20.30
2022-11-19T20:09:36.982Z,20.93
2022-11-19T20:12:05.043Z,25.13
2022-11-19T20:14:32.820Z,29.03
2022-11-19T20:17:00.744Z,21.13
2022-11-19T20:19:29.935Z,22.40
2022-11-19T20:21:57.696Z,22.23
2022-11-19T20:24:25.369Z,19.90
2022-11-19T20:26:53.045Z,22.97
2022-11-19T20:29:22.126Z,28.90
2022-11-19T20:31:51.570Z,29.23
2022-11-19T20:34:21.601Z,24.87
2022-11-19T20:36:51.599Z,26.03
2022-11-19T20:39:20.902Z,27.73
2022-11-19T20:42:07.337Z,24.73
2022-11-19T20:44:37.342Z,24.27
2022-11-19T20:47:06.855Z,28.27
2022-11-19T20:49:49.338Z,23.27
2022-11-19T20:52:22.301Z,23.60
2022-11-19T20:54:52.739Z,23.53
2022-11-19T20:57:22.237Z,25.43
2022-11-19T20:59:51.669Z,25.30
2022-11-19T21:02:20.273Z,34.13
2022-11-19T21:04:49.085Z,26.87
2022-11-19T21:07:17.863Z,19.50
2022-11-19T21:09:47.500Z,24.47
2022-11-19T21:12:16.293Z,24.33
2022-11-19T21:14:46.600Z,29.07
2022-11-19T21:17:15.241Z,34.93
2022-11-19T21:19:43.913Z,20.20
2022-11-19T21:22:12.829Z,25.20
2022-11-19T21:24:40.942Z,19.77
2022-11-19T21:27:10.439Z,19.30
2022-11-19T21:29:39.147Z,20.17
2022-11-19T21:32:08.117Z,22.83
2022-11-19T21:34:35.994Z,18.73
2022-11-19T21:37:05.146Z,16.80
2022-11-19T21:39:35.074Z,19.50
2022-11-19T21:42:04.648Z,17.87
2022-11-19T21:44:34.530Z,18.30
2022-11-19T21:47:03.777Z,19.43
2022-11-19T21:49:32.122Z,20.47
2022-11-19T21:52:00.050Z,24.77
2022-11-19T21:54:28.006Z,18.63
2022-11-19T21:56:56.030Z,17.03
2022-11-19T21:59:26.775Z,18.37
2022-11-19T22:01:56.264Z,16.30
2022-11-19T22:04:24.208Z,16.47
2022-11-19T22:06:52.555Z,18.03
2022-11-19T22:09:21.369Z,17.97
2022-11-19T22:11:49.680Z,23.17
2022-11-19T22:14:18.258Z,24.93
2022-11-19T22:16:46.779Z,23.77
2022-11-19T22:19:16.172Z,25.30
2022-11-19T22:21:44.628Z,24.53
2022-11-19T22:24:13.428Z,18.30
2022-11-19T22:26:41.507Z,17.10
2022-11-19T22:29:09.466Z,18.33
2022-11-19T22:31:37.775Z,18.93
2022-11-19T22:34:05.790Z,15.50
2022-11-19T22:36:35.183Z,19.00
2022-11-19T22:39:03.758Z,20.27
2022-11-19T22:41:32.648Z,21.73
2022-11-19T22:44:00.515Z,17.43
2022-11-19T22:46:29.237Z,16.63
2022-11-19T22:48:57.639Z,22.57
2022-11-19T22:51:27.464Z,19.87
2022-11-19T22:53:57.265Z,18.80
2022-11-19T22:56:27.730Z,15.57
2022-11-19T22:58:56.435Z,16.70
2022-11-19T23:01:26.080Z,20.47
2022-11-19T23:03:54.598Z,20.13
2022-11-19T23:06:23.812Z,17.40
2022-11-19T23:08:52.415Z,18.50
2022-11-19T23:11:37.770Z,18.50
2022-11-19T23:14:06.032Z,19.37
2022-11-19T23:16:33.985Z,21.37
2022-11-19T23:19:02.352Z,19.83
2022-11-19T23:21:30.576Z,20.67
2022-11-19T23:24:01.029Z,16.47
2022-11-19T23:26:32.297Z,18.60
2022-11-19T23:29:00.226Z,16.27
2022-11-19T23:31:29.657Z,20.80
2022-11-19T23:33:59.667Z,13.60
2022-11-19T23:36:29.364Z,17.77
2022-11-19T23:38:57.505Z,17.90
2022-11-19T23:41:25.560Z,20.23
2022-11-19T23:43:56.006Z,17.47
2022-11-19T23:46:25.310Z,21.37
2022-11-19T23:48:55.108Z,20.73
2022-11-19T23:51:25.111Z,20.40
2022-11-19T23:53:53.445Z,17.33
2022-11-19T23:56:23.246Z,17.33
2022-11-19T23:58:51.809Z,16.07
